createdAt,value
2022-08-14T00:01:11.503Z,21.35
2022-08-14T00:03:40.683Z,21.33
2022-08-14T00:06:25.912Z,21.29
2022-08-14T00:08:58.954Z,21.28
2022-08-14T00:11:31.866Z,21.25
2022-08-14T00:14:02.836Z,21.24
2022-08-14T00:16:41.291Z,21.24
2022-08-14T00:19:19.792Z,21.20
2022-08-14T00:21:52.175Z,21.18
2022-08-14T00:24:28.511Z,21.17
2022-08-14T00:27:02.224Z,21.13
2022-08-14T00:29:40.132Z,21.11
2022-08-14T00:32:52.559Z,21.09
2022-08-14T00:34:56.480Z,21.03
2022-08-14T00:37:23.511Z,21.01
2022-08-14T00:39:51.225Z,20.99
2022-08-14T00:42:55.157Z,20.98
2022-08-14T00:45:13.911Z,20.98
2022-08-14T00:47:44.877Z,20.96
2022-08-14T00:50:16.693Z,20.94
2022-08-14T00:52:46.640Z,20.92
2022-08-14T00:55:19.912Z,20.89
2022-08-14T00:58:07.169Z,20.86
2022-08-14T01:00:37.410Z,20.84
2022-08-14T01:03:18.464Z,20.84
2022-08-14T01:05:50.914Z,20.87
2022-08-14T01:08:51.213Z,20.90
2022-08-14T01:11:09.698Z,20.93
2022-08-14T01:13:42.258Z,20.94
2022-08-14T01:16:14.959Z,20.97
2022-08-14T01:19:02.283Z,20.91
2022-08-14T01:21:46.940Z,20.89
2022-08-14T01:24:24.734Z,20.87
2022-08-14T01:27:00.349Z,20.84
2022-08-14T01:29:58.965Z,20.83
2022-08-14T01:32:23.296Z,20.82
2022-08-14T01:35:17.958Z,20.79
2022-08-14T01:37:56.172Z,20.76
2022-08-14T01:40:36.518Z,20.73
2022-08-14T01:43:13.744Z,20.68
2022-08-14T01:45:41.116Z,20.63
2022-08-14T01:48:13.826Z,20.56
2022-08-14T01:50:42.121Z,20.53
2022-08-14T01:53:09.707Z,20.51
2022-08-14T01:55:38.608Z,20.48
2022-08-14T01:58:19.386Z,20.43
2022-08-14T02:00:55.031Z,20.40
2022-08-14T02:03:32.042Z,20.36
2022-08-14T02:06:04.144Z,20.32
2022-08-14T02:08:53.014Z,20.26
2022-08-14T02:11:23.737Z,20.25
2022-08-14T02:13:52.291Z,20.24
2022-08-14T02:16:25.337Z,20.23
2022-08-14T02:18:55.518Z,20.21
2022-08-14T02:21:23.413Z,20.18
2022-08-14T02:23:53.496Z,20.15
2022-08-14T02:26:29.950Z,20.11
2022-08-14T02:29:03.434Z,20.07
2022-08-14T02:31:42.654Z,20.04
2022-08-14T02:34:22.065Z,19.96
2022-08-14T02:37:04.719Z,19.86
2022-08-14T02:39:42.565Z,19.87
2022-08-14T02:42:13.557Z,19.85
2022-08-14T02:44:42.966Z,19.82
2022-08-14T02:47:14.946Z,19.82
2022-08-14T02:49:42.817Z,19.80
2022-08-14T02:52:56.857Z,19.80
2022-08-14T02:54:57.593Z,19.77
2022-08-14T02:57:40.375Z,19.74
2022-08-14T03:00:10.184Z,19.75
2022-08-14T03:02:56.399Z,19.75
2022-08-14T03:05:24.055Z,19.75
2022-08-14T03:07:52.975Z,19.78
2022-08-14T03:10:25.850Z,19.76
2022-08-14T03:12:55.250Z,19.76
2022-08-14T03:15:22.208Z,19.75
2022-08-14T03:17:57.146Z,19.76
2022-08-14T03:20:28.317Z,19.77
2022-08-14T03:23:03.056Z,19.78
2022-08-14T03:25:33.366Z,19.78
2022-08-14T03:28:07.271Z,19.78
2022-08-14T03:30:39.657Z,19.79
2022-08-14T03:33:10.595Z,19.80
2022-08-14T03:35:59.774Z,19.82
2022-08-14T03:39:13.230Z,19.80
2022-08-14T03:41:18.710Z,19.80
2022-08-14T03:43:47.648Z,19.76
2022-08-14T03:46:46.674Z,19.72
2022-08-14T03:49:24.345Z,19.69
2022-08-14T03:51:55.558Z,19.67
2022-08-14T03:54:24.521Z,19.67
2022-08-14T03:56:51.198Z,19.67
2022-08-14T03:59:19.617Z,19.69
2022-08-14T04:01:57.811Z,19.71
2022-08-14T04:04:29.440Z,19.71
2022-08-14T04:06:59.182Z,19.72
2022-08-14T04:09:27.383Z,19.71
2022-08-14T04:11:56.203Z,19.71
2022-08-14T04:14:25.197Z,19.72
2022-08-14T04:16:51.905Z,19.74
2022-08-14T04:19:19.999Z,19.76
2022-08-14T04:22:02.944Z,19.77
2022-08-14T04:24:38.037Z,19.78
2022-08-14T04:27:09.653Z,19.77
2022-08-14T04:29:38.457Z,19.79
2022-08-14T04:33:10.598Z,19.79
2022-08-14T04:34:55.211Z,19.84
2022-08-14T04:37:42.906Z,19.90
2022-08-14T04:40:28.746Z,19.95
2022-08-14T04:43:17.347Z,19.99
2022-08-14T04:45:44.484Z,20.01
2022-08-14T04:48:39.460Z,20.08
2022-08-14T04:51:01.836Z,20.12
2022-08-14T04:53:34.722Z,20.15
2022-08-14T04:56:06.053Z,20.19
2022-08-14T04:58:39.104Z,20.33
2022-08-14T05:01:12.514Z,20.88
2022-08-14T05:03:44.079Z,21.38
2022-08-14T05:06:39.059Z,21.73
2022-08-14T05:08:59.711Z,22.14
2022-08-14T05:11:27.497Z,22.33
2022-08-14T05:14:34.437Z,22.57
2022-08-14T05:16:46.558Z,22.77
2022-08-14T05:19:18.938Z,22.94
2022-08-14T05:22:01.160Z,23.09
2022-08-14T05:24:42.961Z,23.23
2022-08-14T05:27:10.401Z,23.35
2022-08-14T05:29:37.294Z,23.55
2022-08-14T05:32:07.559Z,23.67
2022-08-14T05:34:34.208Z,23.65
2022-08-14T05:37:03.256Z,23.73
2022-08-14T05:39:31.679Z,23.83
2022-08-14T05:42:00.592Z,23.96
2022-08-14T05:44:30.148Z,24.05
2022-08-14T05:46:58.337Z,24.14
2022-08-14T05:49:26.119Z,24.21
2022-08-14T05:52:02.031Z,24.30
2022-08-14T05:54:33.947Z,24.31
2022-08-14T05:57:03.156Z,24.40
2022-08-14T05:59:38.755Z,24.48
2022-08-14T06:02:07.829Z,24.50
2022-08-14T06:04:37.236Z,24.50
2022-08-14T06:07:04.308Z,24.45
2022-08-14T06:09:35.745Z,24.46
2022-08-14T06:12:08.463Z,24.51
2022-08-14T06:14:36.063Z,24.63
2022-08-14T06:17:04.607Z,24.69
2022-08-14T06:19:31.515Z,24.70
2022-08-14T06:21:59.099Z,24.71
2022-08-14T06:24:27.124Z,24.66
2022-08-14T06:26:56.810Z,24.63
2022-08-14T06:29:32.445Z,24.64
2022-08-14T06:32:48.729Z,24.64
2022-08-14T06:35:09.121Z,24.63
2022-08-14T06:37:58.897Z,24.50
2022-08-14T06:40:30.294Z,24.38
2022-08-14T06:43:07.122Z,24.31
2022-08-14T06:45:39.803Z,24.38
2022-08-14T06:48:19.127Z,24.42
2022-08-14T06:50:48.666Z,24.45
2022-08-14T06:53:16.534Z,24.55
2022-08-14T06:55:58.026Z,24.56
2022-08-14T06:58:29.186Z,24.46
2022-08-14T07:01:15.403Z,24.37
2022-08-14T07:04:00.958Z,24.53
2022-08-14T07:06:45.666Z,24.63
2022-08-14T07:09:18.161Z,24.80
2022-08-14T07:11:49.764Z,24.86
2022-08-14T07:14:16.356Z,24.90
2022-08-14T07:16:42.919Z,25.05
2022-08-14T07:19:09.975Z,25.24
2022-08-14T07:21:37.504Z,25.37
2022-08-14T07:24:04.708Z,25.33
2022-08-14T07:26:31.288Z,25.48
2022-08-14T07:28:57.873Z,25.65
2022-08-14T07:31:24.423Z,25.80
2022-08-14T07:33:51.704Z,25.81
2022-08-14T07:36:27.715Z,25.91
2022-08-14T07:39:00.835Z,26.04
2022-08-14T07:41:33.939Z,26.03
2022-08-14T07:44:28.728Z,26.08
2022-08-14T07:46:48.651Z,26.20
2022-08-14T07:49:18.096Z,26.32
2022-08-14T07:51:45.662Z,26.39
2022-08-14T07:54:16.635Z,26.37
2022-08-14T07:56:53.909Z,26.20
2022-08-14T07:59:40.605Z,26.10
2022-08-14T08:02:19.637Z,26.25
2022-08-14T08:04:55.192Z,26.47
2022-08-14T08:07:29.596Z,26.62
2022-08-14T08:09:58.417Z,26.72
2022-08-14T08:12:30.148Z,26.75
2022-08-14T08:15:03.004Z,26.86
2022-08-14T08:17:39.049Z,26.93
2022-08-14T08:20:16.906Z,27.14
2022-08-14T08:22:55.910Z,27.31
2022-08-14T08:25:24.738Z,27.35
2022-08-14T08:28:19.737Z,27.52
2022-08-14T08:31:08.263Z,27.58
2022-08-14T08:33:39.239Z,27.53
2022-08-14T08:36:13.003Z,27.61
2022-08-14T08:39:16.568Z,27.74
2022-08-14T08:41:59.186Z,27.88
2022-08-14T08:44:34.557Z,27.96
2022-08-14T08:47:06.477Z,28.01
2022-08-14T08:49:43.229Z,28.19
2022-08-14T08:52:24.952Z,28.26
2022-08-14T08:54:56.134Z,28.27
2022-08-14T08:57:24.247Z,28.28
2022-08-14T08:59:54.934Z,28.34
2022-08-14T09:02:26.112Z,28.39
2022-08-14T09:05:03.798Z,28.47
2022-08-14T09:07:30.701Z,28.47
2022-08-14T09:09:59.021Z,28.48
2022-08-14T09:12:31.645Z,28.62
2022-08-14T09:15:11.754Z,28.71
2022-08-14T09:17:41.537Z,28.77
2022-08-14T09:20:11.623Z,28.87
2022-08-14T09:22:42.704Z,29.02
2022-08-14T09:25:16.138Z,29.21
2022-08-14T09:27:42.967Z,29.26
2022-08-14T09:30:12.752Z,29.32
2022-08-14T09:33:15.132Z,29.48
2022-08-14T09:36:14.043Z,29.67
2022-08-14T09:39:02.184Z,29.95
2022-08-14T09:42:21.953Z,30.15
2022-08-14T09:45:12.205Z,30.25
2022-08-14T09:47:41.544Z,30.41
2022-08-14T09:50:26.885Z,30.50
2022-08-14T09:53:03.947Z,30.53
2022-08-14T09:55:41.420Z,30.61
2022-08-14T09:58:19.618Z,30.71
2022-08-14T10:00:52.835Z,30.78
2022-08-14T10:03:33.976Z,30.87
2022-08-14T10:06:13.706Z,30.99
2022-08-14T10:08:51.113Z,31.12
2022-08-14T10:11:35.174Z,31.26
2022-08-14T10:14:29.133Z,31.34
2022-08-14T10:17:02.561Z,31.45
2022-08-14T10:19:35.562Z,31.57
2022-08-14T10:23:12.161Z,31.68
2022-08-14T10:24:59.822Z,31.72
2022-08-14T10:27:28.163Z,31.78
2022-08-14T10:30:01.007Z,31.85
2022-08-14T10:32:36.601Z,31.81
2022-08-14T10:35:14.007Z,31.71
2022-08-14T10:37:53.056Z,31.63
2022-08-14T10:40:37.605Z,31.71
2022-08-14T10:43:17.899Z,31.88
2022-08-14T10:45:59.895Z,31.95
2022-08-14T10:48:45.946Z,31.93
2022-08-14T10:51:15.099Z,32.00
2022-08-14T10:53:41.769Z,32.07
2022-08-14T10:56:21.745Z,32.28
2022-08-14T10:59:08.147Z,32.50
2022-08-14T11:01:41.761Z,32.57
2022-08-14T11:04:26.111Z,32.57
2022-08-14T11:06:55.332Z,32.59
2022-08-14T11:09:22.886Z,32.64
2022-08-14T11:11:56.556Z,32.67
2022-08-14T11:14:51.211Z,32.81
2022-08-14T11:17:31.754Z,32.82
2022-08-14T11:20:01.697Z,32.88
2022-08-14T11:22:55.606Z,32.85
2022-08-14T11:25:23.821Z,32.98
2022-08-14T11:27:53.425Z,33.11
2022-08-14T11:30:51.296Z,33.14
2022-08-14T11:33:13.285Z,33.21
2022-08-14T11:35:47.708Z,33.28
2022-08-14T11:38:17.038Z,33.35
2022-08-14T11:40:47.248Z,33.26
2022-08-14T11:43:14.965Z,33.09
2022-08-14T11:45:48.847Z,33.06
2022-08-14T11:49:02.526Z,33.22
2022-08-14T11:51:14.941Z,33.49
2022-08-14T11:53:50.324Z,33.68
2022-08-14T11:56:17.584Z,33.84
2022-08-14T11:58:51.206Z,33.97
2022-08-14T12:01:27.148Z,34.04
2022-08-14T12:03:57.188Z,34.01
2022-08-14T12:06:29.106Z,33.90
2022-08-14T12:09:08.848Z,33.83
2022-08-14T12:11:44.208Z,33.86
2022-08-14T12:14:30.298Z,33.91
2022-08-14T12:17:12.614Z,33.88
2022-08-14T12:20:00.461Z,33.85
2022-08-14T12:22:37.278Z,33.81
2022-08-14T12:25:11.324Z,33.79
2022-08-14T12:27:51.993Z,33.85
2022-08-14T12:30:44.655Z,33.84
2022-08-14T12:33:32.915Z,33.96
2022-08-14T12:36:04.659Z,34.15
2022-08-14T12:38:44.027Z,34.33
2022-08-14T12:41:20.235Z,34.48
2022-08-14T12:43:53.574Z,34.63
2022-08-14T12:46:27.324Z,34.69
2022-08-14T12:48:56.761Z,34.60
2022-08-14T12:51:27.268Z,34.64
2022-08-14T12:54:00.019Z,34.68
2022-08-14T12:56:33.175Z,34.61
2022-08-14T12:59:01.778Z,34.53
2022-08-14T13:01:59.142Z,34.49
2022-08-14T13:04:18.944Z,34.38
2022-08-14T13:06:50.731Z,34.13
2022-08-14T13:09:19.251Z,33.93
2022-08-14T13:11:58.548Z,33.84
2022-08-14T13:14:38.452Z,33.64
2022-08-14T13:17:05.683Z,33.50
2022-08-14T13:19:35.637Z,33.49
2022-08-14T13:22:10.170Z,33.54
2022-08-14T13:24:48.031Z,33.62
2022-08-14T13:27:15.891Z,33.73
2022-08-14T13:29:47.512Z,33.76
2022-08-14T13:32:15.244Z,33.81
2022-08-14T13:34:43.808Z,33.96
2022-08-14T13:37:14.635Z,34.13
2022-08-14T13:39:56.747Z,34.06
2022-08-14T13:42:30.640Z,34.12
2022-08-14T13:44:59.996Z,34.27
2022-08-14T13:47:30.377Z,34.46
2022-08-14T13:50:00.482Z,34.61
2022-08-14T13:52:52.450Z,34.81
2022-08-14T13:55:22.623Z,34.96
2022-08-14T13:58:04.466Z,35.06
2022-08-14T14:00:53.526Z,35.09
2022-08-14T14:03:23.946Z,35.14
2022-08-14T14:05:55.348Z,35.16
2022-08-14T14:08:46.021Z,35.35
2022-08-14T14:11:15.649Z,35.42
2022-08-14T14:13:47.062Z,35.47
2022-08-14T14:16:21.778Z,35.54
2022-08-14T14:18:56.116Z,35.70
2022-08-14T14:21:26.556Z,35.99
2022-08-14T14:23:56.475Z,36.29
2022-08-14T14:26:24.728Z,36.36
2022-08-14T14:28:56.611Z,36.44
2022-08-14T14:31:29.785Z,36.57
2022-08-14T14:34:07.372Z,36.75
2022-08-14T14:36:43.525Z,36.76
2022-08-14T14:39:10.585Z,36.64
2022-08-14T14:41:44.413Z,36.34
2022-08-14T14:44:13.614Z,36.20
2022-08-14T14:46:49.477Z,36.13
2022-08-14T14:49:18.182Z,35.83
2022-08-14T14:51:51.483Z,35.61
2022-08-14T14:54:31.972Z,35.46
2022-08-14T14:57:05.045Z,35.33
2022-08-14T14:59:37.392Z,35.18
2022-08-14T15:02:09.107Z,34.99
2022-08-14T15:04:38.513Z,34.66
2022-08-14T15:07:07.963Z,34.42
2022-08-14T15:09:34.772Z,34.28
2022-08-14T15:12:05.637Z,34.04
2022-08-14T15:14:55.224Z,33.77
2022-08-14T15:17:25.240Z,33.50
2022-08-14T15:19:56.842Z,33.30
2022-08-14T15:22:25.333Z,33.21
2022-08-14T15:24:52.159Z,33.22
2022-08-14T15:27:26.253Z,33.10
2022-08-14T15:29:53.767Z,33.03
2022-08-14T15:32:23.193Z,32.99
2022-08-14T15:34:52.630Z,32.99
2022-08-14T15:37:22.203Z,33.00
2022-08-14T15:39:49.927Z,32.95
2022-08-14T15:42:20.561Z,32.91
2022-08-14T15:44:58.587Z,32.95
2022-08-14T15:47:31.001Z,33.01
2022-08-14T15:50:00.699Z,33.20
2022-08-14T15:52:35.342Z,33.35
2022-08-14T15:55:08.096Z,33.36
2022-08-14T15:57:36.081Z,33.31
2022-08-14T16:00:43.931Z,33.22
2022-08-14T16:03:14.277Z,33.11
2022-08-14T16:05:44.230Z,32.99
2022-08-14T16:08:26.713Z,32.90
2022-08-14T16:10:57.816Z,32.78
2022-08-14T16:13:41.129Z,32.65
2022-08-14T16:16:47.020Z,32.55
2022-08-14T16:19:10.857Z,32.47
2022-08-14T16:22:01.474Z,32.49
2022-08-14T16:24:33.284Z,32.40
2022-08-14T16:27:01.680Z,32.36
2022-08-14T16:29:31.161Z,32.25
2022-08-14T16:32:09.140Z,32.18
2022-08-14T16:34:51.107Z,32.11
2022-08-14T16:37:23.534Z,31.99
2022-08-14T16:40:00.067Z,31.93
2022-08-14T16:42:38.961Z,31.91
2022-08-14T16:45:18.641Z,31.89
2022-08-14T16:47:47.805Z,31.84
2022-08-14T16:50:40.079Z,31.64
2022-08-14T16:53:07.361Z,31.40
2022-08-14T16:55:53.318Z,31.25
2022-08-14T16:58:28.950Z,31.05
2022-08-14T17:01:25.085Z,30.82
2022-08-14T17:04:06.583Z,30.64
2022-08-14T17:06:47.943Z,30.44
2022-08-14T17:09:36.055Z,30.23
2022-08-14T17:12:07.626Z,30.06
2022-08-14T17:14:54.420Z,29.92
2022-08-14T17:17:25.709Z,29.88
2022-08-14T17:20:01.076Z,29.77
2022-08-14T17:22:52.327Z,29.58
2022-08-14T17:25:23.919Z,29.44
2022-08-14T17:28:49.940Z,29.26
2022-08-14T17:31:15.692Z,29.17
2022-08-14T17:33:51.754Z,29.10
2022-08-14T17:36:23.060Z,29.02
2022-08-14T17:39:06.919Z,28.92
2022-08-14T17:42:02.081Z,28.83
2022-08-14T17:44:45.085Z,28.80
2022-08-14T17:47:14.505Z,28.76
2022-08-14T17:49:52.124Z,28.69
2022-08-14T17:52:36.538Z,28.64
2022-08-14T17:55:12.482Z,28.53
2022-08-14T17:57:58.806Z,28.43
2022-08-14T18:00:25.707Z,28.38
2022-08-14T18:02:53.985Z,28.32
2022-08-14T18:05:23.297Z,28.25
2022-08-14T18:08:33.757Z,28.17
2022-08-14T18:10:57.938Z,28.08
2022-08-14T18:13:39.021Z,27.96
2022-08-14T18:16:19.822Z,27.86
2022-08-14T18:18:47.915Z,27.81
2022-08-14T18:21:40.164Z,27.76
2022-08-14T18:24:02.296Z,27.70
2022-08-14T18:26:36.494Z,27.65
2022-08-14T18:29:15.039Z,27.57
2022-08-14T18:31:44.006Z,27.51
2022-08-14T18:34:32.248Z,27.45
2022-08-14T18:37:11.045Z,27.40
2022-08-14T18:40:01.707Z,27.23
2022-08-14T18:42:34.661Z,27.22
2022-08-14T18:45:01.798Z,27.22
2022-08-14T18:47:32.724Z,27.18
2022-08-14T18:50:26.877Z,27.11
2022-08-14T18:53:07.133Z,27.03
2022-08-14T18:55:33.774Z,26.97
2022-08-14T18:58:00.928Z,26.88
2022-08-14T19:00:33.121Z,26.77
2022-08-14T19:03:04.502Z,26.71
2022-08-14T19:05:49.500Z,26.57
2022-08-14T19:08:28.087Z,26.49
2022-08-14T19:11:03.955Z,26.46
2022-08-14T19:13:44.775Z,26.38
2022-08-14T19:16:16.492Z,26.27
2022-08-14T19:19:00.351Z,26.16
2022-08-14T19:21:40.937Z,26.07
2022-08-14T19:24:27.115Z,25.98
2022-08-14T19:27:24.520Z,25.79
2022-08-14T19:30:20.311Z,25.59
2022-08-14T19:32:50.685Z,25.40
2022-08-14T19:35:49.083Z,25.22
2022-08-14T19:38:46.343Z,24.95
2022-08-14T19:41:19.744Z,24.82
2022-08-14T19:43:55.276Z,24.67
2022-08-14T19:46:37.623Z,24.44
2022-08-14T19:49:23.043Z,24.18
2022-08-14T19:51:50.258Z,24.04
2022-08-14T19:54:17.172Z,23.87
2022-08-14T19:56:46.158Z,23.71
2022-08-14T19:59:19.213Z,23.61
2022-08-14T20:01:51.102Z,23.58
2022-08-14T20:04:46.068Z,23.51
2022-08-14T20:08:00.174Z,23.43
2022-08-14T20:11:03.588Z,23.38
2022-08-14T20:13:32.582Z,23.39
2022-08-14T20:16:12.288Z,23.40
2022-08-14T20:18:50.724Z,23.43
2022-08-14T20:21:18.480Z,23.47
2022-08-14T20:23:47.833Z,23.48
2022-08-14T20:26:31.193Z,23.50
2022-08-14T20:29:04.819Z,23.54
2022-08-14T20:31:35.601Z,23.57
2022-08-14T20:34:24.723Z,23.57
2022-08-14T20:37:04.729Z,23.53
2022-08-14T20:39:54.357Z,23.48
2022-08-14T20:42:43.296Z,23.47
2022-08-14T20:45:23.616Z,23.50
2022-08-14T20:48:01.503Z,23.43
2022-08-14T20:50:29.787Z,23.39
2022-08-14T20:52:58.195Z,23.33
2022-08-14T20:55:37.264Z,23.21
2022-08-14T20:58:41.899Z,23.13
2022-08-14T21:01:18.916Z,23.06
2022-08-14T21:03:56.777Z,23.03
2022-08-14T21:07:23.967Z,23.01
2022-08-14T21:10:03.035Z,23.02
2022-08-14T21:12:34.757Z,23.02
2022-08-14T21:14:55.465Z,23.05
2022-08-14T21:17:25.296Z,23.07
2022-08-14T21:19:53.322Z,23.09
2022-08-14T21:22:19.966Z,23.08
2022-08-14T21:24:47.401Z,23.07
2022-08-14T21:27:20.166Z,23.06
2022-08-14T21:29:54.210Z,23.10
2022-08-14T21:32:50.052Z,23.12
2022-08-14T21:35:18.733Z,23.12
2022-08-14T21:37:48.030Z,23.16
2022-08-14T21:40:35.370Z,23.19
2022-08-14T21:43:05.008Z,23.17
2022-08-14T21:45:35.361Z,23.21
2022-08-14T21:48:10.515Z,23.21
2022-08-14T21:51:01.322Z,23.20
2022-08-14T21:53:31.122Z,23.18
2022-08-14T21:55:58.135Z,23.17
2022-08-14T21:58:54.122Z,23.16
2022-08-14T22:01:15.833Z,23.14
2022-08-14T22:03:45.055Z,23.17
2022-08-14T22:06:19.491Z,23.16
2022-08-14T22:08:46.737Z,23.17
2022-08-14T22:11:21.167Z,23.16
2022-08-14T22:13:48.935Z,23.11
2022-08-14T22:16:59.749Z,23.07
2022-08-14T22:19:06.287Z,23.02
2022-08-14T22:21:38.584Z,23.02
2022-08-14T22:24:12.746Z,23.03
2022-08-14T22:27:01.256Z,23.03
2022-08-14T22:29:28.766Z,23.02
2022-08-14T22:31:55.821Z,23.02
2022-08-14T22:34:23.815Z,22.96
2022-08-14T22:36:50.603Z,22.96
2022-08-14T22:40:15.370Z,22.94
2022-08-14T22:42:21.343Z,22.93
2022-08-14T22:44:50.673Z,22.93
2022-08-14T22:47:19.188Z,22.94
2022-08-14T22:50:30.218Z,22.93
2022-08-14T22:52:39.837Z,22.88
2022-08-14T22:55:07.926Z,22.86
2022-08-14T22:57:37.235Z,22.88
2022-08-14T23:00:13.042Z,22.86
2022-08-14T23:02:40.832Z,22.84
2022-08-14T23:05:12.951Z,22.84
2022-08-14T23:08:56.938Z,22.85
2022-08-14T23:10:31.774Z,22.86
2022-08-14T23:13:02.323Z,22.86
2022-08-14T23:15:30.383Z,22.87
2022-08-14T23:17:58.027Z,22.87
2022-08-14T23:20:29.372Z,22.87
2022-08-14T23:22:57.987Z,22.88
2022-08-14T23:25:57.977Z,22.93
2022-08-14T23:28:32.893Z,22.95
2022-08-14T23:31:02.490Z,22.99
2022-08-14T23:33:33.224Z,23.03
2022-08-14T23:36:00.129Z,23.06
2022-08-14T23:38:31.006Z,23.06
2022-08-14T23:41:00.782Z,23.03
2022-08-14T23:43:31.419Z,22.97
2022-08-14T23:45:58.911Z,22.95
2022-08-14T23:48:28.154Z,22.89
2022-08-14T23:50:55.158Z,22.84
2022-08-14T23:53:47.255Z,22.73
2022-08-14T23:56:20.185Z,22.67
2022-08-14T23:59:01.033Z,22.67
